Time;durP1;ratioP1;P1;durP2;ratioP2;P2;SDS_P1;SDS_P2;PMS_P1;PMS_P2;Temp;Humidity;BMP_temperature;BMP_pressure;BME280_temperature;BME280_humidity;BME280_pressure;Samples;Min_cycle;Max_cycle;Signal;HPM_P1;HPM_P2
2023/06/13 00:01:50;;;;;;;7.30;6.00;;;19.10;60.20;;;;;;5040620;28;20438;-74
2023/06/13 00:04:23;;;;;;;8.18;5.45;;;19.00;60.40;;;;;;5025527;28;20057;-74
2023/06/13 00:06:50;;;;;;;7.13;5.53;;;19.10;60.70;;;;;;5050899;28;20056;-74
2023/06/13 00:09:19;;;;;;;6.95;5.82;;;19.00;60.90;;;;;;5046163;28;20053;-74
2023/06/13 00:11:46;;;;;;;8.95;5.30;;;18.90;61.10;;;;;;5045338;28;20532;-74
2023/06/13 00:14:16;;;;;;;8.75;5.25;;;18.90;61.20;;;;;;5043378;28;20061;-75
2023/06/13 00:16:47;;;;;;;7.70;5.60;;;18.90;61.50;;;;;;5066038;28;20052;-74
2023/06/13 00:19:13;;;;;;;9.13;5.53;;;18.80;61.70;;;;;;5042217;28;20557;-74
2023/06/13 00:21:40;;;;;;;6.38;5.68;;;18.80;62.00;;;;;;5031409;28;20041;-74
2023/06/13 00:24:06;;;;;;;7.15;5.57;;;18.70;62.40;;;;;;5057286;28;20063;-75
2023/06/13 00:26:32;;;;;;;8.52;5.70;;;18.70;62.40;;;;;;5042269;28;20108;-75
2023/06/13 00:28:57;;;;;;;7.05;5.82;;;18.70;62.50;;;;;;5029214;28;20483;-74
2023/06/13 00:31:28;;;;;;;7.43;5.75;;;18.60;62.90;;;;;;5054951;28;20037;-76
2023/06/13 00:33:59;;;;;;;5.97;5.38;;;18.60;62.90;;;;;;5040289;28;20041;-76
2023/06/13 00:36:27;;;;;;;8.80;5.57;;;18.60;63.20;;;;;;5031770;28;20096;-74
2023/06/13 00:38:56;;;;;;;8.57;5.70;;;18.60;63.20;;;;;;5025101;28;20061;-75
2023/06/13 00:41:22;;;;;;;9.88;5.68;;;18.50;63.30;;;;;;5049804;28;20041;-75
2023/06/13 00:43:48;;;;;;;9.32;6.05;;;18.50;63.50;;;;;;5041091;28;20053;-74
2023/06/13 00:46:17;;;;;;;9.40;6.00;;;18.40;63.60;;;;;;5047838;28;20128;-74
2023/06/13 00:48:44;;;;;;;8.95;5.25;;;18.40;63.60;;;;;;5040134;28;20057;-75
2023/06/13 00:51:14;;;;;;;9.93;6.22;;;18.40;63.70;;;;;;5043701;28;20041;-75
2023/06/13 00:53:44;;;;;;;6.93;6.15;;;18.30;64.10;;;;;;5055518;28;20458;-75
2023/06/13 00:56:10;;;;;;;8.60;5.55;;;18.30;64.30;;;;;;5042493;28;20564;-75
2023/06/13 00:58:36;;;;;;;9.68;6.00;;;18.30;64.60;;;;;;5028959;28;20046;-75
2023/06/13 01:01:02;;;;;;;9.93;5.55;;;18.20;64.70;;;;;;5047402;28;20041;-75
2023/06/13 01:03:30;;;;;;;8.50;6.00;;;18.20;64.70;;;;;;5054521;28;20044;-75
2023/06/13 01:05:55;;;;;;;6.85;5.82;;;18.10;65.10;;;;;;5047172;28;20101;-75
2023/06/13 01:08:24;;;;;;;8.25;6.28;;;18.10;65.10;;;;;;5033333;28;20049;-74
2023/06/13 01:10:59;;;;;;;7.53;5.82;;;18.10;65.30;;;;;;5035531;28;20044;-75
2023/06/13 01:13:34;;;;;;;7.80;5.90;;;18.00;65.60;;;;;;5065043;28;20150;-75
2023/06/13 01:16:15;;;;;;;8.30;6.18;;;18.00;65.60;;;;;;5049257;28;20079;-75
2023/06/13 01:18:44;;;;;;;7.88;6.00;;;17.90;66.00;;;;;;5065595;28;20136;-75
2023/06/13 01:21:13;;;;;;;8.90;5.85;;;17.90;66.10;;;;;;5053939;28;20044;-76
2023/06/13 01:23:39;;;;;;;8.50;6.07;;;17.90;66.30;;;;;;5064076;28;20048;-75
2023/06/13 01:26:21;;;;;;;8.65;6.07;;;17.90;66.60;;;;;;5040041;28;20197;-75
2023/06/13 01:28:51;;;;;;;;;;;17.90;66.70;;;;;;5034310;28;20068;-74
2023/06/13 01:31:21;;;;;;;7.68;6.20;;;17.80;67.80;;;;;;5043563;28;19932;-75
2023/06/13 01:33:47;;;;;;;8.25;6.22;;;17.70;67.40;;;;;;5025979;28;20083;-74
2023/06/13 01:36:14;;;;;;;9.48;6.30;;;17.70;68.40;;;;;;5047187;28;20087;-75
2023/06/13 01:38:40;;;;;;;6.90;6.10;;;17.70;69.70;;;;;;5046617;28;20048;-75
2023/06/13 01:41:06;;;;;;;8.77;6.10;;;17.70;69.70;;;;;;5035012;28;20055;-75
2023/06/13 01:43:32;;;;;;;8.90;6.32;;;17.70;70.20;;;;;;5036857;28;20044;-75
2023/06/13 01:46:13;;;;;;;8.85;6.00;;;17.60;71.20;;;;;;5002426;28;20049;-75
2023/06/13 01:48:55;;;;;;;10.18;6.30;;;17.60;71.70;;;;;;5019636;28;20408;-75
2023/06/13 01:51:24;;;;;;;10.00;6.03;;;17.60;73.40;;;;;;5020575;28;20243;-75
2023/06/13 01:53:55;;;;;;;10.23;7.20;;;17.60;73.70;;;;;;5020952;28;20094;-75
2023/06/13 01:56:28;;;;;;;9.40;6.47;;;17.60;72.70;;;;;;5036544;28;20057;-76
2023/06/13 01:58:59;;;;;;;8.48;6.15;;;17.40;72.60;;;;;;5039521;28;20045;-75
2023/06/13 02:01:26;;;;;;;;;;;17.30;73.40;;;;;;5036985;28;20367;-76
2023/06/13 02:03:53;;;;;;;9.52;6.50;;;17.20;74.40;;;;;;5059586;28;19924;-77
2023/06/13 02:06:19;;;;;;;9.65;6.40;;;17.10;75.00;;;;;;5035531;28;20189;-76
2023/06/13 02:08:45;;;;;;;10.48;6.30;;;17.10;75.70;;;;;;5036747;28;20045;-75
2023/06/13 02:11:11;;;;;;;8.40;6.03;;;17.00;76.90;;;;;;5039263;28;20128;-75
2023/06/13 02:13:37;;;;;;;6.10;5.50;;;17.00;77.90;;;;;;5060908;28;20127;-75
2023/06/13 02:16:03;;;;;;;12.57;6.80;;;16.90;79.30;;;;;;5023687;28;20049;-75
2023/06/13 02:18:30;;;;;;;13.20;6.97;;;16.80;80.00;;;;;;5040205;28;20041;-75
2023/06/13 02:20:56;;;;;;;9.52;6.63;;;16.80;81.40;;;;;;5039106;28;20072;-74
2023/06/13 02:23:23;;;;;;;7.18;6.32;;;16.70;82.50;;;;;;5010877;28;20045;-74
2023/06/13 02:25:49;;;;;;;7.53;6.50;;;16.70;84.00;;;;;;5030860;28;20041;-74
2023/06/13 02:28:15;;;;;;;8.48;6.00;;;16.60;85.50;;;;;;5022739;28;20076;-74
2023/06/13 02:30:40;;;;;;;8.50;6.25;;;16.60;86.80;;;;;;5018256;28;20048;-74
2023/06/13 02:33:08;;;;;;;8.60;6.45;;;16.50;89.10;;;;;;5027221;28;20044;-74
2023/06/13 02:35:33;;;;;;;7.70;6.10;;;16.50;90.60;;;;;;5039873;28;20051;-74
2023/06/13 02:37:59;;;;;;;9.35;6.57;;;16.40;91.80;;;;;;5038565;28;20045;-73
2023/06/13 02:40:25;;;;;;;7.43;6.45;;;16.30;92.70;;;;;;5046589;28;20514;-73
2023/06/13 02:42:54;;;;;;;9.00;6.78;;;16.30;93.80;;;;;;5009086;28;20057;-74
2023/06/13 02:45:20;;;;;;;13.32;6.38;;;16.20;95.00;;;;;;5048512;28;20048;-75
2023/06/13 02:47:46;;;;;;;9.30;6.07;;;16.20;96.30;;;;;;5037034;28;20076;-74
2023/06/13 02:50:11;;;;;;;8.00;6.50;;;16.10;97.80;;;;;;5025718;28;20517;-74
2023/06/13 02:52:37;;;;;;;8.57;6.43;;;16.00;99.30;;;;;;5051950;28;20033;-74
2023/06/13 02:55:07;;;;;;;9.10;7.07;;;15.90;99.90;;;;;;5063204;28;20049;-75
2023/06/13 02:57:33;;;;;;;8.93;6.70;;;15.80;99.90;;;;;;5029444;28;20260;-75
2023/06/13 02:59:59;;;;;;;8.57;6.38;;;15.80;99.90;;;;;;5031384;28;20072;-75
2023/06/13 03:02:26;;;;;;;40.10;8.52;;;15.80;99.90;;;;;;5022353;28;20037;-75
2023/06/13 03:04:55;;;;;;;17.55;6.95;;;15.70;99.90;;;;;;5014784;28;20048;-74
2023/06/13 03:07:20;;;;;;;10.43;6.75;;;15.70;99.90;;;;;;5033206;28;20056;-73
2023/06/13 03:09:46;;;;;;;8.98;6.50;;;15.70;99.90;;;;;;5035215;28;20053;-76
2023/06/13 03:12:12;;;;;;;11.88;7.10;;;15.70;99.90;;;;;;5022211;28;20053;-76
2023/06/13 03:14:38;;;;;;;15.65;7.10;;;15.70;99.90;;;;;;5048925;28;20084;-75
2023/06/13 03:17:04;;;;;;;9.57;6.15;;;15.70;99.90;;;;;;5032080;28;20048;-75
2023/06/13 03:19:30;;;;;;;17.83;6.88;;;15.70;99.90;;;;;;5024099;28;20640;-74
2023/06/13 03:21:57;;;;;;;11.57;6.35;;;15.70;99.90;;;;;;5054979;28;20076;-75
2023/06/13 03:24:22;;;;;;;8.68;6.10;;;15.70;99.90;;;;;;5062425;28;20052;-76
2023/06/13 03:26:48;;;;;;;11.68;6.78;;;15.60;99.90;;;;;;5047077;28;20079;-76
2023/06/13 03:29:14;;;;;;;9.43;6.30;;;15.70;99.90;;;;;;5030144;28;20105;-74
2023/06/13 03:31:40;;;;;;;9.07;5.93;;;15.70;99.90;;;;;;5062719;28;20037;-74
2023/06/13 03:34:06;;;;;;;10.15;6.18;;;15.80;99.90;;;;;;5026121;28;20085;-75
2023/06/13 03:36:37;;;;;;;8.13;5.78;;;15.80;99.90;;;;;;5045377;28;20049;-75
2023/06/13 03:39:03;;;;;;;10.77;6.32;;;15.90;99.90;;;;;;5026039;28;20154;-76
2023/06/13 03:41:28;;;;;;;7.28;6.18;;;16.00;99.90;;;;;;5064537;28;20065;-76
2023/06/13 03:43:55;;;;;;;8.25;6.20;;;16.30;99.90;;;;;;5042941;28;20103;-76
2023/06/13 03:46:20;;;;;;;7.45;6.25;;;16.60;99.90;;;;;;5029408;28;20073;-75
2023/06/13 03:48:46;;;;;;;10.35;6.75;;;16.70;99.90;;;;;;5046288;28;20435;-74
2023/06/13 03:51:12;;;;;;;7.13;6.07;;;16.70;99.90;;;;;;5021931;28;20297;-75
2023/06/13 03:53:38;;;;;;;9.48;6.40;;;16.60;99.90;;;;;;5021189;28;20498;-76
2023/06/13 03:56:06;;;;;;;8.98;6.10;;;16.50;99.90;;;;;;5007661;28;20855;-76
2023/06/13 03:58:32;;;;;;;10.30;6.55;;;16.40;99.90;;;;;;5060296;28;20609;-76
2023/06/13 04:00:59;;;;;;;13.20;6.75;;;16.40;99.90;;;;;;5050750;28;20136;-75
2023/06/13 04:03:29;;;;;;;10.20;5.88;;;16.40;99.90;;;;;;5046314;28;20052;-75
2023/06/13 04:05:55;;;;;;;11.68;6.43;;;16.30;99.90;;;;;;5041418;28;20488;-76
2023/06/13 04:08:21;;;;;;;8.40;6.35;;;16.20;99.90;;;;;;5043015;28;20075;-76
2023/06/13 04:10:46;;;;;;;17.55;6.43;;;16.20;99.90;;;;;;5021022;28;20374;-77
2023/06/13 04:13:12;;;;;;;13.43;7.35;;;16.10;99.90;;;;;;5007516;28;20558;-76
2023/06/13 04:15:38;;;;;;;8.25;5.68;;;16.10;99.90;;;;;;5017264;28;20085;-76
2023/06/13 04:18:03;;;;;;;11.65;6.80;;;16.10;99.90;;;;;;5027769;28;20076;-76
2023/06/13 04:20:29;;;;;;;8.15;6.13;;;16.10;99.90;;;;;;5025511;28;20037;-76
2023/06/13 04:22:55;;;;;;;8.38;6.03;;;16.10;99.90;;;;;;5041063;28;20080;-74
2023/06/13 04:25:22;;;;;;;7.20;6.18;;;16.10;99.90;;;;;;5048582;28;20117;-76
2023/06/13 04:27:48;;;;;;;9.88;6.50;;;16.10;99.90;;;;;;5044263;28;20122;-76
2023/06/13 04:30:15;;;;;;;12.23;6.65;;;16.20;99.90;;;;;;5046549;28;20045;-75
2023/06/13 04:32:43;;;;;;;7.93;5.80;;;16.30;99.90;;;;;;5012560;28;20055;-76
2023/06/13 04:35:16;;;;;;;8.15;6.13;;;16.30;99.90;;;;;;5057154;28;20055;-75
2023/06/13 04:37:45;;;;;;;7.72;6.20;;;16.30;99.90;;;;;;5035397;28;20131;-75
2023/06/13 04:40:13;;;;;;;11.13;6.60;;;16.30;99.90;;;;;;5063580;28;20061;-80
2023/06/13 04:42:39;;;;;;;9.07;6.80;;;16.30;99.90;;;;;;5041146;28;20528;-77
2023/06/13 04:45:05;;;;;;;8.93;6.00;;;16.30;99.90;;;;;;5059802;28;20870;-78
2023/06/13 04:47:33;;;;;;;9.30;6.60;;;16.50;99.90;;;;;;5035653;28;20051;-77
2023/06/13 04:49:59;;;;;;;9.02;6.43;;;16.60;99.90;;;;;;5054021;28;20057;-76
2023/06/13 04:52:32;;;;;;;13.02;6.88;;;16.60;99.90;;;;;;5041220;28;20051;-76
2023/06/13 04:55:02;;;;;;;8.07;5.85;;;16.50;99.90;;;;;;5024746;28;20637;-75
2023/06/13 04:57:28;;;;;;;9.90;6.22;;;16.50;99.90;;;;;;5035796;28;20048;-75
2023/06/13 04:59:59;;;;;;;11.02;6.75;;;16.50;99.90;;;;;;5009495;28;20511;-75
2023/06/13 05:02:25;;;;;;;7.55;6.35;;;16.50;99.90;;;;;;5052609;28;20056;-75
2023/06/13 05:04:52;;;;;;;9.82;6.35;;;16.50;99.90;;;;;;5050094;28;20044;-73
2023/06/13 05:07:19;;;;;;;9.38;6.40;;;16.50;99.90;;;;;;5019163;28;20128;-72
2023/06/13 05:09:45;;;;;;;8.85;6.35;;;16.50;99.90;;;;;;5012874;28;20510;-74
2023/06/13 05:12:12;;;;;;;8.93;6.18;;;16.60;99.90;;;;;;5027255;28;20049;-74
2023/06/13 05:14:41;;;;;;;7.90;6.80;;;16.60;99.90;;;;;;5018184;28;20045;-74
2023/06/13 05:17:07;;;;;;;11.98;6.78;;;16.50;99.90;;;;;;5042972;28;20056;-74
2023/06/13 05:19:34;;;;;;;8.23;6.25;;;16.60;99.90;;;;;;5032778;28;20052;-74
2023/06/13 05:22:03;;;;;;;7.32;5.93;;;16.60;99.90;;;;;;5050771;28;20064;-74
2023/06/13 05:24:29;;;;;;;7.65;6.60;;;16.70;99.90;;;;;;5060628;28;20045;-73
2023/06/13 05:26:55;;;;;;;8.20;6.50;;;16.70;99.90;;;;;;5039425;28;20380;-74
2023/06/13 05:29:20;;;;;;;8.60;6.68;;;16.80;99.90;;;;;;5011158;28;20056;-74
2023/06/13 05:31:46;;;;;;;7.82;6.80;;;16.80;99.90;;;;;;5029665;28;20036;-73
2023/06/13 05:34:12;;;;;;;9.02;6.32;;;16.90;99.90;;;;;;5048292;28;20029;-73
2023/06/13 05:36:38;;;;;;;9.23;6.28;;;16.90;99.90;;;;;;5033823;28;20093;-73
2023/06/13 05:39:03;;;;;;;7.82;6.63;;;17.00;99.90;;;;;;5033208;28;20078;-74
2023/06/13 05:41:29;;;;;;;11.15;6.68;;;17.10;99.90;;;;;;5019019;28;20045;-73
2023/06/13 05:43:55;;;;;;;8.38;6.80;;;17.20;99.90;;;;;;5020466;28;20060;-73
2023/06/13 05:46:20;;;;;;;10.20;6.50;;;17.20;99.90;;;;;;5031392;28;20045;-73
2023/06/13 05:48:46;;;;;;;11.38;6.85;;;17.30;99.90;;;;;;5002906;28;20164;-73
2023/06/13 05:51:12;;;;;;;8.10;6.35;;;17.40;99.90;;;;;;5020556;28;20046;-72
2023/06/13 05:53:37;;;;;;;11.00;6.90;;;17.50;99.90;;;;;;5034492;28;20045;-73
2023/06/13 05:56:03;;;;;;;8.32;6.97;;;17.60;99.90;;;;;;5025019;28;20397;-72
2023/06/13 05:58:29;;;;;;;9.07;6.50;;;17.70;99.90;;;;;;5044596;28;20050;-73
2023/06/13 06:00:57;;;;;;;10.88;6.63;;;17.80;99.90;;;;;;5012157;28;20069;-74
2023/06/13 06:03:23;;;;;;;8.95;6.10;;;17.90;99.90;;;;;;5031431;28;20048;-73
2023/06/13 06:05:48;;;;;;;10.75;6.20;;;18.00;98.00;;;;;;5033240;28;20040;-77
2023/06/13 06:08:14;;;;;;;10.73;6.53;;;18.10;95.30;;;;;;5011487;28;20029;-77
2023/06/13 06:10:40;;;;;;;8.95;6.03;;;18.10;89.20;;;;;;5039792;28;20045;-77
2023/06/13 06:13:06;;;;;;;8.32;5.97;;;18.30;89.10;;;;;;5043218;28;20491;-75
2023/06/13 06:15:37;;;;;;;9.27;5.90;;;18.40;85.80;;;;;;5031159;28;20079;-76
2023/06/13 06:18:03;;;;;;;7.65;5.57;;;18.50;83.70;;;;;;5054913;28;20468;-76
2023/06/13 06:20:29;;;;;;;9.18;5.82;;;18.70;79.60;;;;;;5049963;28;20068;-74
2023/06/13 06:22:55;;;;;;;7.35;5.40;;;18.80;77.60;;;;;;5035181;28;20488;-75
2023/06/13 06:25:20;;;;;;;6.13;5.20;;;18.90;74.50;;;;;;5019064;28;20045;-74
2023/06/13 06:27:47;;;;;;;6.40;5.18;;;19.00;72.00;;;;;;5015209;28;20049;-75
2023/06/13 06:30:14;;;;;;;9.27;5.00;;;19.10;70.40;;;;;;5045818;28;20049;-75
2023/06/13 06:32:40;;;;;;;8.10;5.30;;;19.30;69.70;;;;;;5027784;28;20547;-75
2023/06/13 06:35:06;;;;;;;7.43;5.13;;;19.40;68.40;;;;;;5045934;28;20102;-75
2023/06/13 06:37:32;;;;;;;8.70;4.88;;;19.50;67.40;;;;;;5037497;28;20037;-76
2023/06/13 06:39:58;;;;;;;9.10;5.25;;;19.70;66.60;;;;;;5066861;28;20048;-76
2023/06/13 06:42:25;;;;;;;7.13;4.90;;;19.80;66.20;;;;;;5015511;28;20474;-82
2023/06/13 06:44:51;;;;;;;10.68;4.78;;;20.00;65.90;;;;;;5046395;28;20048;-84
2023/06/13 06:47:17;;;;;;;7.75;4.93;;;20.20;65.50;;;;;;5015565;28;20048;-76
2023/06/13 06:49:43;;;;;;;5.30;4.65;;;20.40;65.30;;;;;;5029309;23;20144;-76
2023/06/13 06:52:08;;;;;;;7.38;4.10;;;20.60;64.90;;;;;;5039032;28;20049;-76
2023/06/13 06:54:34;;;;;;;4.93;4.43;;;20.80;63.30;;;;;;5059336;28;20036;-76
2023/06/13 06:57:04;;;;;;;5.68;4.60;;;21.00;62.80;;;;;;5027627;28;20045;-76
2023/06/13 06:59:30;;;;;;;6.78;4.35;;;21.20;62.80;;;;;;5064400;28;20071;-76
2023/06/13 07:01:56;;;;;;;5.32;3.97;;;21.30;61.80;;;;;;5045571;28;20053;-76
2023/06/13 07:04:25;;;;;;;6.90;4.55;;;21.40;61.60;;;;;;5055975;28;20041;-76
2023/06/13 07:06:50;;;;;;;5.30;4.40;;;21.50;60.80;;;;;;5046812;28;20422;-75
2023/06/13 07:09:16;;;;;;;6.65;4.60;;;21.60;61.30;;;;;;5046375;28;20049;-75
2023/06/13 07:11:42;;;;;;;6.85;4.55;;;21.70;60.60;;;;;;5060251;28;20037;-76
2023/06/13 07:14:08;;;;;;;9.88;4.50;;;21.80;60.10;;;;;;5066579;28;20045;-75
2023/06/13 07:16:33;;;;;;;5.20;4.55;;;21.70;59.80;;;;;;5067995;28;20068;-75
2023/06/13 07:18:59;;;;;;;7.50;4.70;;;21.70;59.30;;;;;;5067700;28;20087;-75
2023/06/13 07:21:25;;;;;;;6.82;4.20;;;21.70;59.70;;;;;;5032113;28;20541;-75
2023/06/13 07:23:52;;;;;;;5.13;3.95;;;21.80;59.30;;;;;;5065703;28;20126;-75
2023/06/13 07:26:17;;;;;;;9.32;4.70;;;21.90;59.30;;;;;;5051649;28;20095;-75
2023/06/13 07:28:43;;;;;;;6.40;4.53;;;22.10;59.40;;;;;;5066470;28;20045;-75
2023/06/13 07:31:09;;;;;;;5.53;4.28;;;22.20;59.30;;;;;;5068402;28;20033;-75
2023/06/13 07:33:35;;;;;;;8.43;4.45;;;22.30;59.50;;;;;;5066755;28;20045;-75
2023/06/13 07:36:00;;;;;;;5.13;3.95;;;22.40;59.40;;;;;;5072035;28;20044;-75
2023/06/13 07:38:26;;;;;;;6.50;4.22;;;22.50;59.10;;;;;;5066871;28;20037;-75
2023/06/13 07:40:52;;;;;;;6.13;3.90;;;22.50;58.70;;;;;;5050897;28;20040;-75
2023/06/13 07:43:18;;;;;;;7.70;4.50;;;22.60;58.50;;;;;;5047770;28;20069;-75
2023/06/13 07:45:46;;;;;;;6.45;4.20;;;22.70;58.50;;;;;;5051616;28;20049;-75
2023/06/13 07:48:12;;;;;;;6.68;4.15;;;22.80;57.60;;;;;;5048002;28;20044;-75
2023/06/13 07:50:38;;;;;;;7.88;3.78;;;23.00;56.90;;;;;;5030510;28;20045;-74
2023/06/13 07:53:04;;;;;;;9.00;3.90;;;23.00;57.20;;;;;;5057698;28;20049;-74
2023/06/13 07:55:30;;;;;;;4.80;3.65;;;23.00;56.60;;;;;;5042345;28;20056;-75
2023/06/13 07:57:56;;;;;;;6.10;4.10;;;23.20;56.90;;;;;;5045462;28;20136;-75
2023/06/13 08:00:22;;;;;;;8.15;3.65;;;23.20;55.90;;;;;;5058763;28;20262;-75
2023/06/13 08:02:47;;;;;;;4.90;3.60;;;23.30;55.60;;;;;;5034914;28;20053;-75
2023/06/13 08:05:14;;;;;;;5.68;3.40;;;23.30;54.50;;;;;;5029432;28;20075;-76
2023/06/13 08:07:40;;;;;;;6.05;3.47;;;23.30;53.70;;;;;;5023653;28;20277;-75
2023/06/13 08:10:06;;;;;;;6.00;4.10;;;23.40;53.90;;;;;;5049495;28;20052;-75
2023/06/13 08:12:32;;;;;;;6.78;4.05;;;23.60;53.80;;;;;;5039422;28;20114;-76
2023/06/13 08:14:58;;;;;;;4.05;3.40;;;23.60;53.10;;;;;;5043569;28;20048;-76
2023/06/13 08:17:26;;;;;;;5.57;3.50;;;23.70;53.30;;;;;;5037033;28;20332;-75
2023/06/13 08:19:52;;;;;;;6.07;3.60;;;23.80;52.50;;;;;;5049773;28;20045;-75
2023/06/13 08:22:18;;;;;;;10.65;4.13;;;24.00;52.50;;;;;;5039111;28;20063;-75
2023/06/13 08:24:45;;;;;;;8.65;3.47;;;24.10;51.70;;;;;;5044987;28;20492;-75
2023/06/13 08:27:13;;;;;;;5.50;3.38;;;24.20;51.30;;;;;;5059409;28;20049;-76
2023/06/13 08:29:39;;;;;;;4.93;3.20;;;24.20;50.10;;;;;;5055053;28;20044;-75
2023/06/13 08:32:05;;;;;;;5.85;3.67;;;24.10;49.70;;;;;;5027592;28;20503;-75
2023/06/13 08:34:30;;;;;;;3.40;3.10;;;24.20;49.80;;;;;;5037016;28;20169;-76
2023/06/13 08:36:56;;;;;;;5.45;3.30;;;24.30;49.20;;;;;;5041613;28;20036;-76
2023/06/13 08:39:22;;;;;;;4.32;2.97;;;24.40;49.00;;;;;;5040919;28;20049;-76
2023/06/13 08:41:49;;;;;;;4.10;3.47;;;24.60;48.70;;;;;;5033599;28;20033;-75
2023/06/13 08:44:16;;;;;;;5.60;3.50;;;24.80;48.60;;;;;;5047641;28;20048;-75
2023/06/13 08:46:42;;;;;;;5.72;3.55;;;25.00;48.30;;;;;;5035834;28;20053;-75
2023/06/13 08:49:09;;;;;;;6.55;3.58;;;25.00;47.80;;;;;;5041070;28;20057;-75
2023/06/13 08:51:37;;;;;;;5.30;3.72;;;25.00;47.90;;;;;;4995249;28;20119;-75
2023/06/13 08:54:04;;;;;;;4.88;3.10;;;25.30;48.30;;;;;;5046147;28;20099;-75
2023/06/13 08:56:37;;;;;;;5.25;3.42;;;25.40;48.20;;;;;;5037880;28;20507;-75
2023/06/13 08:59:20;;;;;;;6.40;3.60;;;25.40;47.60;;;;;;5058061;28;20045;-75
2023/06/13 09:01:46;;;;;;;4.90;3.75;;;25.30;46.30;;;;;;5040789;28;20052;-75
2023/06/13 09:04:12;;;;;;;4.85;3.50;;;25.10;46.80;;;;;;5046548;28;20059;-75
2023/06/13 09:06:38;;;;;;;6.68;3.40;;;25.00;47.00;;;;;;5041546;28;20041;-75
2023/06/13 09:09:08;;;;;;;5.80;3.67;;;25.20;47.00;;;;;;5058308;28;20055;-75
2023/06/13 09:11:35;;;;;;;4.82;3.22;;;25.30;47.40;;;;;;5057623;28;20048;-75
2023/06/13 09:14:03;;;;;;;5.05;3.53;;;25.50;46.80;;;;;;5059453;28;20072;-75
2023/06/13 09:16:30;;;;;;;6.70;3.25;;;25.60;46.30;;;;;;5056500;28;20293;-75
2023/06/13 09:18:57;;;;;;;17.35;5.22;;;25.50;45.30;;;;;;5032068;28;20049;-75
2023/06/13 09:21:23;;;;;;;3.95;3.55;;;25.30;45.40;;;;;;5039550;28;20049;-75
2023/06/13 09:23:49;;;;;;;5.30;3.38;;;25.30;45.50;;;;;;5035466;28;20049;-75
2023/06/13 09:26:18;;;;;;;9.35;3.75;;;25.30;45.50;;;;;;5057177;28;20041;-75
2023/06/13 09:28:47;;;;;;;4.30;3.50;;;25.40;45.40;;;;;;5039327;28;20040;-75
2023/06/13 09:31:13;;;;;;;5.03;3.53;;;25.30;45.20;;;;;;5035828;28;20040;-76
2023/06/13 09:33:39;;;;;;;4.93;3.25;;;25.50;46.00;;;;;;5039382;28;20102;-75
2023/06/13 09:36:06;;;;;;;8.40;3.97;;;25.80;46.00;;;;;;5037774;28;20750;-76
2023/06/13 09:38:36;;;;;;;3.70;3.40;;;26.10;46.30;;;;;;5032764;28;20045;-77
2023/06/13 09:41:04;;;;;;;5.00;3.45;;;26.30;46.20;;;;;;5040441;28;20091;-76
2023/06/13 09:43:30;;;;;;;5.53;4.03;;;26.50;46.00;;;;;;5058034;28;20190;-76
2023/06/13 09:45:56;;;;;;;8.95;4.40;;;26.60;45.10;;;;;;5039893;28;20045;-75
2023/06/13 09:48:22;;;;;;;4.30;3.33;;;26.50;45.30;;;;;;5023513;28;20502;-75
2023/06/13 09:50:50;;;;;;;7.80;4.05;;;26.20;44.60;;;;;;5056586;28;20064;-76
2023/06/13 09:53:16;;;;;;;4.35;3.72;;;26.20;45.20;;;;;;5059752;28;20037;-76
2023/06/13 09:55:42;;;;;;;5.35;3.80;;;26.00;45.20;;;;;;5039351;28;20127;-77
2023/06/13 09:58:08;;;;;;;11.40;4.65;;;25.90;45.20;;;;;;5042048;28;20059;-76
2023/06/13 10:00:35;;;;;;;5.75;4.03;;;25.90;45.20;;;;;;5052887;28;20081;-77
2023/06/13 10:03:02;;;;;;;5.53;3.83;;;26.10;45.50;;;;;;5016998;28;20052;-76
2023/06/13 10:05:28;;;;;;;5.47;3.90;;;26.30;46.20;;;;;;5000020;28;20046;-75
2023/06/13 10:07:55;;;;;;;13.82;4.97;;;26.40;45.10;;;;;;5039158;28;20083;-76
2023/06/13 10:10:20;;;;;;;4.90;3.80;;;26.50;44.80;;;;;;5021765;28;20052;-75
2023/06/13 10:13:02;;;;;;;6.95;3.83;;;26.30;44.80;;;;;;5019669;28;20048;-76
2023/06/13 10:15:39;;;;;;;4.10;3.67;;;26.20;44.80;;;;;;5014466;28;20455;-76
2023/06/13 10:18:11;;;;;;;4.93;3.85;;;26.20;45.20;;;;;;5026755;28;20049;-76
2023/06/13 10:20:38;;;;;;;5.38;3.90;;;26.10;45.70;;;;;;5019924;28;20044;-77
2023/06/13 10:23:06;;;;;;;4.60;3.88;;;26.20;45.40;;;;;;5022318;28;20052;-76
2023/06/13 10:25:33;;;;;;;6.85;4.28;;;26.20;45.10;;;;;;5041059;28;20045;-76
2023/06/13 10:28:27;;;;;;;4.93;3.40;;;26.20;45.40;;;;;;5005429;28;20041;-76
2023/06/13 10:31:17;;;;;;;6.03;3.60;;;26.20;45.70;;;;;;5033386;28;20406;-76
2023/06/13 10:34:02;;;;;;;4.40;3.77;;;26.30;45.40;;;;;;5024477;28;20048;-76
2023/06/13 10:36:56;;;;;;;5.05;3.90;;;26.50;45.70;;;;;;5045373;28;20291;-76
2023/06/13 10:39:46;;;;;;;8.90;4.47;;;26.60;46.00;;;;;;5025712;28;20060;-76
2023/06/13 10:42:36;;;;;;;4.22;3.70;;;26.60;45.10;;;;;;5027351;28;20045;-75
2023/06/13 10:45:16;;;;;;;9.95;4.28;;;26.60;45.10;;;;;;5026678;28;20528;-76
2023/06/13 10:47:41;;;;;;;5.85;4.13;;;26.50;45.30;;;;;;5029892;28;20049;-76
2023/06/13 10:50:08;;;;;;;5.50;3.53;;;26.60;46.40;;;;;;5038081;28;20072;-75
2023/06/13 10:52:34;;;;;;;5.50;3.92;;;26.70;45.60;;;;;;5006317;28;20068;-76
2023/06/13 10:55:01;;;;;;;5.85;4.30;;;26.80;45.20;;;;;;5042923;28;20515;-76
2023/06/13 10:57:51;;;;;;;4.97;3.97;;;26.80;45.00;;;;;;5026238;28;20052;-76
2023/06/13 11:00:24;;;;;;;6.13;4.03;;;27.10;45.60;;;;;;5019482;28;20749;-76
2023/06/13 11:03:01;;;;;;;4.65;3.60;;;27.30;45.40;;;;;;5022635;28;20041;-75
2023/06/13 11:05:27;;;;;;;4.93;4.20;;;27.60;45.70;;;;;;5042519;28;20485;-76
2023/06/13 11:07:57;;;;;;;9.07;4.43;;;27.30;44.50;;;;;;5022779;28;20063;-76
2023/06/13 11:10:24;;;;;;;5.85;4.18;;;27.40;45.50;;;;;;5042306;28;20076;-76
2023/06/13 11:12:53;;;;;;;8.20;4.07;;;27.30;44.50;;;;;;5004007;28;20118;-77
2023/06/13 11:15:28;;;;;;;4.88;4.38;;;27.20;44.40;;;;;;5042684;28;20033;-74
2023/06/13 11:18:09;;;;;;;6.72;4.43;;;27.30;44.40;;;;;;5043567;28;20084;-74
2023/06/13 11:20:55;;;;;;;6.72;4.35;;;27.40;44.20;;;;;;5043582;28;20076;-75
2023/06/13 11:23:33;;;;;;;4.75;4.20;;;27.20;44.50;;;;;;5043890;28;20131;-75
2023/06/13 11:25:59;;;;;;;6.30;3.97;;;27.20;44.30;;;;;;5025683;28;20044;-75
2023/06/13 11:28:24;;;;;;;6.25;4.20;;;27.20;44.40;;;;;;5044034;28;20153;-74
2023/06/13 11:30:52;;;;;;;4.90;4.38;;;27.30;44.70;;;;;;5025099;28;20140;-75
2023/06/13 11:33:19;;;;;;;7.88;4.32;;;27.20;44.10;;;;;;5002979;28;20077;-86
2023/06/13 11:35:54;;;;;;;8.15;4.80;;;27.20;44.60;;;;;;4991258;28;20104;-75
2023/06/13 11:38:24;;;;;;;5.78;4.43;;;27.10;44.60;;;;;;5022517;28;20045;-75
2023/06/13 11:40:56;;;;;;;9.13;4.70;;;27.20;44.60;;;;;;5041689;28;20086;-75
2023/06/13 11:43:28;;;;;;;5.80;4.18;;;27.20;44.80;;;;;;5017772;28;20049;-78
2023/06/13 11:46:04;;;;;;;6.70;4.30;;;27.10;45.00;;;;;;5046548;28;20044;-77
2023/06/13 11:48:30;;;;;;;4.95;3.92;;;27.30;45.30;;;;;;5014960;28;20068;-76
2023/06/13 11:51:13;;;;;;;6.50;4.60;;;27.40;45.10;;;;;;5039280;28;20064;-76
2023/06/13 11:53:48;;;;;;;6.45;4.63;;;27.50;44.20;;;;;;5022218;28;20049;-76
2023/06/13 11:56:15;;;;;;;4.78;4.00;;;27.80;44.20;;;;;;5010783;28;20483;-76
2023/06/13 11:58:41;;;;;;;6.63;4.55;;;27.80;43.90;;;;;;5010619;28;20053;-76
2023/06/13 12:01:07;;;;;;;5.00;4.45;;;27.70;43.00;;;;;;5037232;28;20392;-77
2023/06/13 12:03:38;;;;;;;4.57;4.15;;;27.60;43.30;;;;;;5016616;28;20040;-77
2023/06/13 12:06:06;;;;;;;6.07;4.50;;;27.60;43.40;;;;;;5010950;28;20029;-76
2023/06/13 12:08:36;;;;;;;6.03;4.40;;;27.60;44.00;;;;;;5015856;28;20044;-77
2023/06/13 12:11:05;;;;;;;6.57;4.43;;;27.60;43.80;;;;;;5004268;28;20150;-76
2023/06/13 12:13:33;;;;;;;9.50;4.40;;;27.60;44.30;;;;;;5045691;28;20049;-77
2023/06/13 12:16:00;;;;;;;5.57;4.32;;;27.80;45.20;;;;;;5022029;28;20064;-76
2023/06/13 12:18:28;;;;;;;7.75;3.88;;;27.90;44.90;;;;;;5004307;28;20049;-77
2023/06/13 12:20:56;;;;;;;4.22;3.83;;;27.60;44.80;;;;;;5027631;28;20084;-77
2023/06/13 12:23:23;;;;;;;5.43;3.70;;;27.60;45.60;;;;;;5032751;28;20686;-76
2023/06/13 12:25:50;;;;;;;5.80;3.60;;;27.60;45.30;;;;;;5021882;28;20072;-75
2023/06/13 12:28:17;;;;;;;7.72;4.22;;;27.70;45.30;;;;;;5031999;28;20065;-77
2023/06/13 12:30:45;;;;;;;5.70;4.40;;;27.90;45.30;;;;;;4976543;28;20054;-76
2023/06/13 12:33:17;;;;;;;8.80;4.63;;;28.10;45.40;;;;;;5018499;28;20049;-77
2023/06/13 12:35:54;;;;;;;7.45;4.00;;;28.40;45.20;;;;;;5020237;28;20061;-76
2023/06/13 12:38:26;;;;;;;5.50;4.38;;;28.40;45.20;;;;;;5023759;28;20079;-76
2023/06/13 12:40:52;;;;;;;4.97;4.47;;;28.60;45.00;;;;;;5041305;28;20101;-77
2023/06/13 12:43:40;;;;;;;5.18;3.67;;;28.80;45.20;;;;;;5016115;28;21724;-75
2023/06/13 12:46:06;;;;;;;4.15;3.40;;;28.70;44.30;;;;;;5020618;28;20060;-76
2023/06/13 12:48:37;;;;;;;4.50;3.92;;;28.60;45.50;;;;;;5023996;28;20045;-75
2023/06/13 12:51:05;;;;;;;3.80;3.50;;;28.50;44.80;;;;;;5019882;28;20131;-75